» Metar & Tafor

10 Juni 2019
TAFOR
Pukul :
Isi :

TAF WAGI 162300Z 1700/1712 10006KT 9000 SCT012 BECMG 1705/1707 17006KT TEMPO 1706/1710 3000 RA FEW012CB BKN012=


22 April 2019
METAR
Pukul : 08.00 UTC
Isi :

METAR WAGI 170800Z 00000KT 9000 BKN011 31/24 Q1008 NOSIG=


Hal: << First | < Prev | 1 | Next > | Last >>